HE42 weather

Quwaysina Airport
Minya Governorate, Egypt

Public forecast

Using degrees Celsius for public forecast. Weather courtesy of forecast.io.

METAR (pilot weather report)

Closest report is Cairo International Airport, 31.0 nm (57.3 km) SSE. Retrieved 2019/04/19 08:00 UTC (19 seconds ago):

HECA 190800Z 34005KT 9999 SCT025 19/08 Q1019

TAF (pilot weather forecast)

Closest forecast is Cairo International Airport, 31.0 nm (57.3 km) SSE. Retrieved 2019/04/19 06:00 UTC (2 hours ago):

TAF HECA 190500Z 1906/2012 VRB04KT CAVOK PROB40 TEMPO 1906/1910 4000 HZ NSC BECMG 1909/1912 33012KT 9999 SCT025